createdAt,value
2019-01-27T00:02:03.100Z,5.03
2019-01-27T00:04:34.507Z,4.43
2019-01-27T00:07:05.639Z,4.90
2019-01-27T00:09:36.282Z,4.50
2019-01-27T00:12:07.031Z,4.40
2019-01-27T00:14:38.542Z,4.60
2019-01-27T00:17:09.076Z,3.80
2019-01-27T00:19:40.152Z,3.90
2019-01-27T00:22:11.394Z,4.73
2019-01-27T00:24:42.121Z,4.03
2019-01-27T00:27:12.693Z,3.77
2019-01-27T00:29:44.152Z,3.53
2019-01-27T00:32:15.641Z,3.90
2019-01-27T00:34:46.404Z,3.30
2019-01-27T00:37:17.236Z,4.33
2019-01-27T00:39:48.249Z,3.40
2019-01-27T00:42:19.261Z,3.67
2019-01-27T00:44:50.174Z,3.50
2019-01-27T00:47:21.146Z,4.83
2019-01-27T00:49:52.173Z,4.10
2019-01-27T00:52:24.653Z,5.10
2019-01-27T00:54:57.100Z,5.60
2019-01-27T00:57:28.190Z,3.97
2019-01-27T01:00:00.250Z,3.30
2019-01-27T01:02:30.857Z,3.73
2019-01-27T01:05:03.308Z,3.60
2019-01-27T01:07:34.353Z,3.40
2019-01-27T01:10:06.808Z,4.20
2019-01-27T01:12:39.346Z,4.27
2019-01-27T01:15:11.945Z,5.23
2019-01-27T01:17:43.939Z,3.40
2019-01-27T01:20:17.995Z,3.60
2019-01-27T01:22:50.024Z,3.30
2019-01-27T01:25:22.154Z,3.30
2019-01-27T01:27:54.496Z,2.73
2019-01-27T01:30:27.964Z,3.13
2019-01-27T01:32:59.458Z,3.33
2019-01-27T01:35:34.049Z,3.10
2019-01-27T01:38:06.149Z,3.07
2019-01-27T01:40:38.528Z,3.60
2019-01-27T01:43:09.469Z,3.27
2019-01-27T01:45:41.266Z,3.70
2019-01-27T01:48:12.861Z,3.13
2019-01-27T01:50:44.482Z,3.90
2019-01-27T01:53:14.850Z,3.80
2019-01-27T01:55:47.381Z,4.57
2019-01-27T01:58:18.595Z,5.70
2019-01-27T02:00:49.415Z,6.03
2019-01-27T02:03:22.082Z,6.40
2019-01-27T02:05:54.411Z,6.03
2019-01-27T02:08:25.551Z,6.30
2019-01-27T02:10:56.616Z,7.00
2019-01-27T02:13:27.569Z,6.90
2019-01-27T02:16:16.434Z,6.80
2019-01-27T02:18:47.763Z,6.70
2019-01-27T02:21:19.616Z,7.00
2019-01-27T02:23:52.547Z,7.70
2019-01-27T02:26:23.647Z,7.60
2019-01-27T02:28:54.052Z,7.90
2019-01-27T02:31:25.503Z,7.90
2019-01-27T02:33:56.702Z,9.00
2019-01-27T02:36:27.611Z,9.00
2019-01-27T02:38:58.678Z,8.67
2019-01-27T02:41:29.690Z,8.20
2019-01-27T02:44:00.768Z,8.87
2019-01-27T02:46:31.652Z,7.70
2019-01-27T02:49:02.642Z,8.63
2019-01-27T02:51:33.704Z,8.77
2019-01-27T02:54:05.243Z,8.73
2019-01-27T02:56:37.696Z,8.23
2019-01-27T02:59:09.785Z,7.73
2019-01-27T03:01:40.690Z,9.17
2019-01-27T03:04:11.767Z,9.20
2019-01-27T03:07:17.140Z,8.00
2019-01-27T03:09:50.795Z,7.73
2019-01-27T03:12:23.855Z,8.50
2019-01-27T03:14:56.854Z,9.10
2019-01-27T03:17:27.890Z,8.80
2019-01-27T03:19:59.815Z,7.93
2019-01-27T03:22:32.008Z,10.13
2019-01-27T03:25:05.726Z,8.23
2019-01-27T03:27:36.101Z,8.03
2019-01-27T03:30:12.425Z,8.07
2019-01-27T03:32:43.884Z,8.27
2019-01-27T03:35:16.986Z,8.97
2019-01-27T03:37:48.944Z,8.23
2019-01-27T03:40:19.979Z,8.70
2019-01-27T03:42:51.009Z,9.37
2019-01-27T03:45:21.906Z,9.73
2019-01-27T03:47:53.016Z,9.23
2019-01-27T03:50:23.981Z,9.77
2019-01-27T03:52:54.894Z,9.73
2019-01-27T03:55:27.212Z,10.60
2019-01-27T03:58:00.318Z,12.07
2019-01-27T04:00:31.105Z,11.33
2019-01-27T04:03:02.121Z,10.47
2019-01-27T04:05:33.069Z,11.10
2019-01-27T04:08:06.448Z,11.10
2019-01-27T04:10:37.026Z,11.40
2019-01-27T04:13:09.155Z,12.67
2019-01-27T04:15:42.234Z,11.90
2019-01-27T04:18:12.879Z,11.50
2019-01-27T04:20:44.164Z,11.33
2019-01-27T04:23:15.511Z,11.63
2019-01-27T04:25:46.198Z,11.50
2019-01-27T04:28:17.259Z,12.40
2019-01-27T04:30:48.100Z,11.87
2019-01-27T04:33:19.112Z,11.80
2019-01-27T04:35:52.134Z,11.77
2019-01-27T04:38:25.239Z,13.00
2019-01-27T04:40:58.212Z,11.77
2019-01-27T04:43:29.125Z,12.93
2019-01-27T04:46:00.295Z,12.37
2019-01-27T04:48:34.902Z,14.10
2019-01-27T04:51:07.291Z,12.40
2019-01-27T04:53:38.506Z,12.57
2019-01-27T04:56:09.431Z,13.00
2019-01-27T04:58:40.292Z,11.70
2019-01-27T05:01:11.348Z,11.57
2019-01-27T05:03:48.157Z,12.30
2019-01-27T05:06:19.292Z,11.63
2019-01-27T05:08:51.326Z,12.40
2019-01-27T05:11:23.324Z,12.50
2019-01-27T05:13:54.453Z,12.60
2019-01-27T05:16:25.449Z,12.73
2019-01-27T05:18:56.312Z,13.20
2019-01-27T05:21:27.528Z,13.10
2019-01-27T05:23:58.326Z,12.97
2019-01-27T05:26:29.485Z,14.17
2019-01-27T05:29:00.482Z,13.40
2019-01-27T05:31:31.464Z,13.50
2019-01-27T05:34:03.427Z,13.80
2019-01-27T05:36:36.503Z,13.00
2019-01-27T05:39:09.096Z,15.30
2019-01-27T05:41:41.443Z,13.80
2019-01-27T05:44:12.469Z,14.77
2019-01-27T05:46:44.468Z,14.40
2019-01-27T05:49:16.497Z,14.63
2019-01-27T05:51:48.585Z,15.10
2019-01-27T05:54:20.241Z,13.93
2019-01-27T05:56:56.451Z,15.13
2019-01-27T05:59:25.464Z,15.10
2019-01-27T06:01:58.657Z,15.50
2019-01-27T06:04:30.643Z,16.47
2019-01-27T06:07:01.090Z,16.40
2019-01-27T06:09:31.629Z,16.77
2019-01-27T06:12:03.686Z,17.00
2019-01-27T06:14:36.674Z,18.00
2019-01-27T06:17:07.594Z,17.67
2019-01-27T06:19:38.629Z,19.50
2019-01-27T06:22:09.675Z,18.93
2019-01-27T06:24:40.779Z,17.33
2019-01-27T06:27:11.781Z,20.20
2019-01-27T06:29:42.715Z,20.77
2019-01-27T06:32:21.831Z,19.90
2019-01-27T06:34:53.933Z,19.43
2019-01-27T06:37:25.088Z,21.30
2019-01-27T06:39:55.719Z,19.70
2019-01-27T06:42:26.839Z,22.60
2019-01-27T06:44:57.679Z,23.20
2019-01-27T06:47:29.954Z,22.83
2019-01-27T06:50:01.876Z,25.27
2019-01-27T06:52:32.751Z,24.83
2019-01-27T06:55:04.759Z,25.70
2019-01-27T06:57:37.916Z,25.70
2019-01-27T07:00:34.760Z,26.33
2019-01-27T07:03:21.427Z,28.30
2019-01-27T07:05:59.986Z,31.17
2019-01-27T07:08:42.800Z,29.73
2019-01-27T07:11:37.616Z,31.67
2019-01-27T07:14:34.101Z,29.57
2019-01-27T07:17:28.233Z,31.07
2019-01-27T07:20:20.873Z,30.63
2019-01-27T07:23:10.079Z,34.00
2019-01-27T07:26:00.625Z,33.60
2019-01-27T07:28:40.274Z,31.40
2019-01-27T07:31:37.912Z,34.53
2019-01-27T07:34:28.803Z,31.83
2019-01-27T07:37:23.893Z,34.47
2019-01-27T07:40:33.877Z,31.97
2019-01-27T07:43:17.088Z,32.30
2019-01-27T07:45:52.364Z,31.87
2019-01-27T07:48:41.569Z,32.97
2019-01-27T07:51:30.862Z,32.33
2019-01-27T07:54:20.590Z,32.20
2019-01-27T07:57:17.472Z,33.77
2019-01-27T08:00:03.684Z,31.50
2019-01-27T08:02:52.979Z,31.17
2019-01-27T08:05:47.222Z,32.40
2019-01-27T08:08:38.986Z,31.97
2019-01-27T08:11:34.172Z,32.17
2019-01-27T08:14:26.120Z,31.47
2019-01-27T08:17:13.411Z,31.47
2019-01-27T08:20:04.041Z,31.17
2019-01-27T08:23:04.977Z,31.63
2019-01-27T08:25:59.890Z,30.07
2019-01-27T08:28:41.645Z,31.40
2019-01-27T08:31:22.422Z,30.67
2019-01-27T08:34:12.257Z,31.17
2019-01-27T08:36:58.697Z,29.53
2019-01-27T08:39:40.295Z,30.43
2019-01-27T08:42:29.969Z,29.30
2019-01-27T08:45:23.338Z,30.90
2019-01-27T08:47:56.204Z,32.37
2019-01-27T08:50:27.040Z,29.50
2019-01-27T08:52:57.439Z,29.00
2019-01-27T08:55:28.386Z,30.00
2019-01-27T08:58:01.082Z,31.57
2019-01-27T09:00:38.073Z,31.60
2019-01-27T09:03:22.777Z,31.57
2019-01-27T09:06:04.758Z,31.10
2019-01-27T09:08:55.391Z,31.07
2019-01-27T09:11:44.762Z,31.57
2019-01-27T09:14:41.832Z,31.63
2019-01-27T09:17:32.329Z,29.87
2019-01-27T09:20:28.897Z,29.57
2019-01-27T09:23:22.496Z,30.87
2019-01-27T09:26:13.247Z,30.43
2019-01-27T09:29:02.215Z,30.73
2019-01-27T09:31:41.829Z,29.93
2019-01-27T09:34:28.707Z,31.43
2019-01-27T09:37:27.827Z,29.60
2019-01-27T09:40:14.394Z,30.77
2019-01-27T09:43:08.573Z,35.20
2019-01-27T09:46:05.189Z,33.63
2019-01-27T09:48:49.547Z,31.33
2019-01-27T09:51:34.878Z,29.40
2019-01-27T09:54:19.204Z,32.83
2019-01-27T09:57:01.427Z,31.00
2019-01-27T09:59:54.677Z,33.57
2019-01-27T10:02:34.948Z,29.20
2019-01-27T10:05:43.644Z,31.00
2019-01-27T10:08:27.690Z,33.03
2019-01-27T10:11:26.556Z,31.80
2019-01-27T10:14:19.566Z,47.53
2019-01-27T10:17:21.618Z,37.30
2019-01-27T10:20:23.588Z,33.33
2019-01-27T10:23:06.136Z,34.73
2019-01-27T10:25:52.150Z,31.60
2019-01-27T10:28:36.951Z,34.03
2019-01-27T10:31:33.548Z,31.07
2019-01-27T10:34:24.419Z,31.40
2019-01-27T10:37:00.821Z,32.60
2019-01-27T10:39:57.680Z,33.67
2019-01-27T10:42:46.850Z,32.10
2019-01-27T10:45:46.655Z,31.13
2019-01-27T10:48:42.568Z,40.07
2019-01-27T10:51:30.823Z,32.73
2019-01-27T10:54:21.829Z,30.53
2019-01-27T10:57:16.566Z,32.07
2019-01-27T10:59:57.983Z,33.60
2019-01-27T11:02:57.757Z,36.00
2019-01-27T11:05:45.027Z,38.27
2019-01-27T11:08:27.795Z,33.63
2019-01-27T11:11:10.300Z,31.47
2019-01-27T11:14:05.094Z,32.43
2019-01-27T11:17:02.675Z,31.43
2019-01-27T11:19:51.936Z,32.27
2019-01-27T11:22:53.727Z,30.60
2019-01-27T11:25:43.084Z,32.40
2019-01-27T11:28:30.805Z,31.77
2019-01-27T11:31:15.615Z,36.97
2019-01-27T11:34:11.809Z,35.07
2019-01-27T11:36:54.391Z,33.83
2019-01-27T11:39:47.608Z,31.60
2019-01-27T11:42:38.612Z,31.70
2019-01-27T11:45:32.609Z,32.20
2019-01-27T11:48:15.924Z,31.87
2019-01-27T11:50:54.980Z,31.80
2019-01-27T11:53:28.176Z,30.83
2019-01-27T11:55:59.184Z,31.40
2019-01-27T11:58:30.227Z,31.50
2019-01-27T12:01:03.402Z,31.80
2019-01-27T12:03:35.274Z,31.03
2019-01-27T12:06:06.264Z,33.03
2019-01-27T12:08:37.129Z,32.67
2019-01-27T12:11:08.280Z,31.60
2019-01-27T12:13:39.210Z,31.70
2019-01-27T12:16:10.193Z,32.03
2019-01-27T12:18:43.249Z,33.47
2019-01-27T12:21:13.892Z,33.60
2019-01-27T12:23:45.372Z,32.27
2019-01-27T12:26:17.338Z,34.37
2019-01-27T12:28:50.393Z,36.00
2019-01-27T12:31:21.840Z,34.07
2019-01-27T12:33:52.281Z,32.97
2019-01-27T12:36:23.417Z,34.40
2019-01-27T12:38:54.380Z,31.60
2019-01-27T12:41:26.032Z,33.17
2019-01-27T12:43:56.624Z,31.77
2019-01-27T12:46:27.567Z,32.03
2019-01-27T12:48:58.343Z,30.50
2019-01-27T12:51:29.740Z,32.03
2019-01-27T12:54:00.372Z,35.47
2019-01-27T12:56:31.256Z,32.40
2019-01-27T12:59:03.934Z,32.87
2019-01-27T13:01:34.390Z,33.50
2019-01-27T13:04:07.624Z,33.10
2019-01-27T13:06:38.558Z,33.70
2019-01-27T13:09:11.438Z,33.30
2019-01-27T13:11:42.550Z,33.90
2019-01-27T13:14:13.442Z,34.10
2019-01-27T13:16:44.663Z,33.83
2019-01-27T13:19:17.793Z,34.50
2019-01-27T13:21:50.558Z,33.70
2019-01-27T13:24:23.695Z,32.47
2019-01-27T13:26:54.460Z,34.97
2019-01-27T13:29:26.651Z,34.13
2019-01-27T13:31:59.311Z,32.63
2019-01-27T13:34:30.506Z,33.23
2019-01-27T13:37:01.195Z,33.57
2019-01-27T13:39:31.676Z,32.90
2019-01-27T13:42:03.018Z,32.73
2019-01-27T13:44:33.693Z,33.43
2019-01-27T13:47:04.675Z,33.50
2019-01-27T13:49:35.617Z,31.67
2019-01-27T13:52:06.640Z,33.70
2019-01-27T13:54:38.016Z,32.50
2019-01-27T13:57:08.654Z,35.77
2019-01-27T13:59:39.679Z,33.90
2019-01-27T14:02:10.617Z,32.00
2019-01-27T14:04:48.300Z,34.00
2019-01-27T14:07:13.809Z,34.97
2019-01-27T14:09:46.875Z,33.47
2019-01-27T14:12:17.616Z,33.87
2019-01-27T14:14:50.854Z,32.73
2019-01-27T14:17:21.912Z,32.33
2019-01-27T14:19:52.304Z,33.90
2019-01-27T14:22:23.752Z,34.70
2019-01-27T14:24:54.711Z,32.20
2019-01-27T14:27:25.898Z,32.87
2019-01-27T14:29:57.406Z,35.20
2019-01-27T14:32:27.863Z,36.70
2019-01-27T14:35:00.287Z,36.30
2019-01-27T14:37:32.860Z,53.40
2019-01-27T14:40:04.987Z,41.37
2019-01-27T14:42:47.682Z,34.47
2019-01-27T14:45:20.374Z,33.37
2019-01-27T14:47:50.995Z,34.23
2019-01-27T14:50:31.801Z,32.50
2019-01-27T14:53:05.670Z,36.87
2019-01-27T14:55:38.936Z,36.23
2019-01-27T14:58:10.429Z,34.00
2019-01-27T15:00:42.306Z,35.93
2019-01-27T15:03:14.866Z,33.20
2019-01-27T15:05:45.991Z,33.67
2019-01-27T15:08:16.888Z,32.40
2019-01-27T15:10:48.231Z,30.50
2019-01-27T15:13:20.046Z,32.37
2019-01-27T15:15:54.525Z,32.53
2019-01-27T15:18:27.191Z,34.47
2019-01-27T15:21:05.456Z,35.07
2019-01-27T15:23:38.041Z,35.80
2019-01-27T15:26:11.008Z,31.97
2019-01-27T15:28:42.819Z,34.00
2019-01-27T15:31:13.647Z,34.00
2019-01-27T15:33:45.699Z,31.40
2019-01-27T15:36:18.052Z,33.13
2019-01-27T15:38:49.244Z,32.60
2019-01-27T15:41:20.158Z,32.80
2019-01-27T15:43:53.708Z,30.93
2019-01-27T15:46:25.098Z,32.00
2019-01-27T15:48:56.430Z,32.00
2019-01-27T15:51:27.218Z,31.00
2019-01-27T15:53:58.223Z,31.77
2019-01-27T15:56:29.231Z,34.80
2019-01-27T15:59:00.194Z,29.77
2019-01-27T16:01:31.613Z,30.57
2019-01-27T16:04:02.229Z,30.10
2019-01-27T16:06:33.518Z,30.73
2019-01-27T16:09:05.311Z,31.40
2019-01-27T16:11:37.520Z,32.90
2019-01-27T16:14:08.406Z,31.03
2019-01-27T16:16:40.336Z,31.07
2019-01-27T16:19:15.014Z,29.90
2019-01-27T16:21:47.403Z,30.60
2019-01-27T16:24:26.264Z,31.17
2019-01-27T16:26:58.450Z,30.77
2019-01-27T16:29:43.304Z,30.67
2019-01-27T16:32:22.147Z,28.63
2019-01-27T16:34:57.179Z,29.90
2019-01-27T16:37:29.380Z,29.40
2019-01-27T16:40:00.437Z,29.83
2019-01-27T16:42:31.245Z,30.80
2019-01-27T16:45:02.324Z,32.27
2019-01-27T16:47:33.486Z,32.17
2019-01-27T16:50:05.387Z,30.70
2019-01-27T16:52:38.467Z,30.57
2019-01-27T16:55:11.849Z,32.47
2019-01-27T16:57:43.477Z,31.43
2019-01-27T17:00:20.140Z,28.70
2019-01-27T17:02:51.602Z,30.10
2019-01-27T17:05:22.095Z,29.37
2019-01-27T17:07:52.713Z,30.23
2019-01-27T17:10:26.242Z,30.87
2019-01-27T17:12:57.029Z,32.03
2019-01-27T17:15:29.625Z,30.87
2019-01-27T17:18:00.921Z,30.10
2019-01-27T17:20:31.698Z,29.90
2019-01-27T17:23:02.580Z,29.23
2019-01-27T17:25:34.566Z,29.20
2019-01-27T17:28:06.834Z,31.17
2019-01-27T17:30:37.674Z,29.83
2019-01-27T17:33:09.611Z,30.63
2019-01-27T17:35:43.141Z,29.83
2019-01-27T17:38:13.667Z,30.30
2019-01-27T17:40:44.736Z,28.60
2019-01-27T17:43:16.769Z,29.20
2019-01-27T17:45:47.150Z,32.63
2019-01-27T17:48:17.837Z,32.10
2019-01-27T17:50:48.793Z,31.70
2019-01-27T17:53:20.939Z,32.50
2019-01-27T17:55:52.345Z,30.80
2019-01-27T17:58:44.988Z,31.80
2019-01-27T18:01:37.730Z,30.23
2019-01-27T18:04:28.809Z,29.30
2019-01-27T18:07:19.703Z,29.90
2019-01-27T18:10:09.733Z,30.10
2019-01-27T18:13:10.662Z,29.13
2019-01-27T18:15:44.131Z,29.77
2019-01-27T18:18:15.663Z,32.07
2019-01-27T18:20:48.516Z,30.00
2019-01-27T18:23:19.523Z,30.00
2019-01-27T18:25:50.344Z,30.90
2019-01-27T18:28:20.943Z,32.93
2019-01-27T18:30:52.077Z,31.47
2019-01-27T18:33:23.513Z,32.23
2019-01-27T18:35:54.032Z,29.67
2019-01-27T18:38:25.280Z,31.60
2019-01-27T18:40:56.011Z,31.73
2019-01-27T18:43:26.880Z,30.83
2019-01-27T18:45:58.282Z,31.23
2019-01-27T18:48:29.309Z,30.60
2019-01-27T18:51:00.075Z,30.60
2019-01-27T18:53:48.398Z,28.40
2019-01-27T18:56:47.772Z,28.77
2019-01-27T18:59:27.271Z,29.67
2019-01-27T19:02:23.190Z,31.33
2019-01-27T19:05:13.240Z,28.97
2019-01-27T19:08:06.949Z,28.50
2019-01-27T19:11:08.048Z,31.93
2019-01-27T19:14:04.045Z,29.20
2019-01-27T19:16:54.094Z,32.00
2019-01-27T19:19:34.457Z,31.67
2019-01-27T19:22:23.441Z,29.00
2019-01-27T19:25:38.277Z,30.10
2019-01-27T19:28:28.696Z,34.67
2019-01-27T19:31:08.242Z,33.57
2019-01-27T19:34:09.448Z,34.77
2019-01-27T19:36:47.237Z,34.30
2019-01-27T19:39:48.777Z,32.60
2019-01-27T19:42:38.780Z,34.20
2019-01-27T19:45:29.575Z,32.27
2019-01-27T19:48:19.795Z,33.37
2019-01-27T19:51:11.746Z,34.47
2019-01-27T19:54:04.367Z,33.80
2019-01-27T19:56:54.868Z,33.17
2019-01-27T20:00:03.675Z,33.20
2019-01-27T20:02:53.416Z,32.80
2019-01-27T20:06:01.377Z,33.73
2019-01-27T20:08:56.365Z,33.60
2019-01-27T20:11:58.113Z,36.40
2019-01-27T20:15:03.140Z,36.50
2019-01-27T20:17:45.908Z,33.90
2019-01-27T20:20:48.293Z,36.63
2019-01-27T20:23:37.790Z,38.70
2019-01-27T20:26:20.127Z,37.20
2019-01-27T20:29:00.432Z,35.97
2019-01-27T20:31:50.808Z,36.40
2019-01-27T20:34:35.401Z,36.63
2019-01-27T20:37:36.163Z,34.93
2019-01-27T20:40:28.185Z,32.37
2019-01-27T20:43:13.533Z,31.63
2019-01-27T20:46:06.316Z,36.23
2019-01-27T20:48:51.089Z,37.00
2019-01-27T20:51:36.443Z,35.57
2019-01-27T20:54:26.038Z,36.43
2019-01-27T20:57:15.985Z,35.00
2019-01-27T20:59:59.818Z,35.47
2019-01-27T21:02:51.521Z,35.97
2019-01-27T21:05:32.947Z,34.60
2019-01-27T21:08:18.739Z,34.30
2019-01-27T21:11:15.441Z,37.10
2019-01-27T21:14:02.794Z,35.90
2019-01-27T21:16:41.395Z,37.20
2019-01-27T21:19:28.564Z,37.83
2019-01-27T21:22:00.577Z,33.83
2019-01-27T21:24:32.602Z,36.17
2019-01-27T21:27:06.523Z,38.70
2019-01-27T21:29:36.732Z,41.90
2019-01-27T21:32:07.792Z,40.90
2019-01-27T21:34:38.612Z,40.07
2019-01-27T21:37:11.803Z,40.37
2019-01-27T21:39:44.830Z,40.17
2019-01-27T21:42:15.292Z,38.13
2019-01-27T21:44:45.694Z,38.27
2019-01-27T21:47:17.826Z,37.93
2019-01-27T21:49:50.855Z,36.80
2019-01-27T21:52:25.720Z,35.87
2019-01-27T21:54:58.883Z,38.73
2019-01-27T21:57:29.878Z,37.43
2019-01-27T22:00:01.274Z,37.37
2019-01-27T22:02:33.815Z,37.13
2019-01-27T22:05:06.422Z,37.47
2019-01-27T22:07:38.947Z,37.37
2019-01-27T22:10:12.914Z,37.63
2019-01-27T22:12:43.979Z,36.57
2019-01-27T22:15:14.718Z,37.83
2019-01-27T22:17:45.882Z,36.90
2019-01-27T22:20:17.848Z,35.60
2019-01-27T22:22:50.842Z,36.97
2019-01-27T22:25:21.647Z,37.53
2019-01-27T22:27:52.076Z,36.53
2019-01-27T22:30:23.689Z,37.10
2019-01-27T22:32:54.494Z,34.70
2019-01-27T22:35:25.404Z,36.47
2019-01-27T22:37:58.894Z,38.83
2019-01-27T22:40:32.375Z,38.77
2019-01-27T22:43:04.013Z,37.13
2019-01-27T22:45:43.927Z,40.43
2019-01-27T22:48:14.828Z,37.07
2019-01-27T22:50:46.031Z,37.23
2019-01-27T22:53:17.201Z,38.40
2019-01-27T22:55:48.144Z,37.63
2019-01-27T22:58:19.078Z,36.03
2019-01-27T23:01:05.499Z,37.70
2019-01-27T23:03:38.517Z,36.00
2019-01-27T23:06:10.580Z,37.87
2019-01-27T23:08:41.111Z,38.30
2019-01-27T23:11:12.052Z,35.73
2019-01-27T23:13:43.207Z,38.20
2019-01-27T23:16:20.642Z,38.00
2019-01-27T23:18:53.232Z,37.87
2019-01-27T23:21:24.103Z,37.57
2019-01-27T23:23:56.046Z,37.33
2019-01-27T23:26:51.128Z,39.70
2019-01-27T23:29:24.376Z,38.70
2019-01-27T23:31:55.428Z,38.07
2019-01-27T23:34:26.137Z,38.67
2019-01-27T23:36:57.352Z,39.10
2019-01-27T23:39:29.897Z,36.93
2019-01-27T23:42:02.469Z,37.90
2019-01-27T23:44:34.196Z,38.60
2019-01-27T23:47:07.202Z,38.50
2019-01-27T23:49:38.100Z,40.07
2019-01-27T23:52:10.762Z,40.00
2019-01-27T23:54:43.249Z,40.30
2019-01-27T23:57:14.765Z,41.30
2019-01-27T23:59:47.324Z,41.43
